createdAt,value
2023-06-30T00:00:11.842Z,98783.41
2023-06-30T00:02:38.325Z,98781.44
2023-06-30T00:05:04.884Z,98780.69
2023-06-30T00:07:31.473Z,98792.13
2023-06-30T00:09:57.929Z,98784.22
2023-06-30T00:12:24.382Z,98788.97
2023-06-30T00:14:50.792Z,98785.03
2023-06-30T00:17:17.470Z,98782.66
2023-06-30T00:19:43.892Z,98783.44
2023-06-30T00:22:10.332Z,98781.47
2023-06-30T00:24:36.762Z,98779.88
2023-06-30T00:27:03.184Z,98775.91
2023-06-30T00:29:29.649Z,98775.53
2023-06-30T00:31:56.906Z,98771.16
2023-06-30T00:34:23.403Z,98766.41
2023-06-30T00:36:49.850Z,98768.78
2023-06-30T00:39:16.285Z,98760.47
2023-06-30T00:41:42.721Z,98754.94
2023-06-30T00:44:09.115Z,98758.50
2023-06-30T00:46:35.601Z,98758.50
2023-06-30T00:49:02.085Z,98758.13
2023-06-30T00:51:28.500Z,98757.34
2023-06-30T00:53:55.975Z,98764.44
2023-06-30T00:56:22.394Z,98763.25
2023-06-30T00:58:48.782Z,98761.66
2023-06-30T01:01:15.224Z,98757.31
2023-06-30T01:03:41.714Z,98757.69
2023-06-30T01:06:08.205Z,98754.53
2023-06-30T01:08:34.641Z,98754.53
2023-06-30T01:11:02.139Z,98751.72
2023-06-30T01:13:28.547Z,98750.53
2023-06-30T01:15:54.991Z,98754.50
2023-06-30T01:18:21.430Z,98751.31
2023-06-30T01:20:47.824Z,98742.22
2023-06-30T01:23:14.309Z,98733.13
2023-06-30T01:25:40.786Z,98741.41
2023-06-30T01:28:07.589Z,98741.00
2023-06-30T01:30:36.108Z,98729.53
2023-06-30T01:33:02.648Z,98740.59
2023-06-30T01:35:29.205Z,98737.81
2023-06-30T01:37:55.671Z,98736.25
2023-06-30T01:40:22.098Z,98731.88
2023-06-30T01:42:48.516Z,98726.34
2023-06-30T01:45:14.946Z,98735.78
2023-06-30T01:47:41.375Z,98735.41
2023-06-30T01:50:07.914Z,98729.06
2023-06-30T01:52:34.388Z,98728.69
2023-06-30T01:55:00.844Z,98719.19
2023-06-30T01:57:27.259Z,98724.72
2023-06-30T01:59:53.691Z,98727.06
2023-06-30T02:02:20.849Z,98721.91
2023-06-30T02:04:47.264Z,98719.13
2023-06-30T02:07:15.610Z,98719.13
2023-06-30T02:09:47.923Z,98728.59
2023-06-30T02:12:15.305Z,98728.97
2023-06-30T02:14:41.736Z,98728.19
2023-06-30T02:17:08.141Z,98723.84
2023-06-30T02:19:34.546Z,98724.63
2023-06-30T02:22:00.965Z,98729.72
2023-06-30T02:24:27.352Z,98731.66
2023-06-30T02:26:54.112Z,98730.06
2023-06-30T02:29:20.540Z,98730.44
2023-06-30T02:31:47.086Z,98724.53
2023-06-30T02:34:13.733Z,98726.91
2023-06-30T02:36:40.160Z,98721.00
2023-06-30T02:39:06.544Z,98723.72
2023-06-30T02:41:32.979Z,98728.03
2023-06-30T02:44:00.283Z,98721.34
2023-06-30T02:46:26.786Z,98718.53
2023-06-30T02:48:53.384Z,98721.69
2023-06-30T02:51:19.793Z,98727.16
2023-06-30T02:53:46.257Z,98714.13
2023-06-30T02:56:12.705Z,98717.66
2023-06-30T02:58:39.313Z,98719.25
2023-06-30T03:01:05.887Z,98711.72
2023-06-30T03:03:35.675Z,98716.06
2023-06-30T03:06:02.778Z,98718.41
2023-06-30T03:08:32.083Z,98720.38
2023-06-30T03:10:58.549Z,98717.16
2023-06-30T03:13:25.043Z,98723.84
2023-06-30T03:15:51.530Z,98719.38
2023-06-30T03:18:17.946Z,98713.81
2023-06-30T03:20:44.427Z,98712.19
2023-06-30T03:23:10.880Z,98715.78
2023-06-30T03:25:37.316Z,98715.72
2023-06-30T03:28:03.716Z,98720.09
2023-06-30T03:30:30.278Z,98718.50
2023-06-30T03:32:56.752Z,98711.41
2023-06-30T03:35:23.209Z,98713.72
2023-06-30T03:37:49.668Z,98715.72
2023-06-30T03:40:16.169Z,98711.38
2023-06-30T03:42:42.865Z,98708.19
2023-06-30T03:45:09.314Z,98707.81
2023-06-30T03:47:35.870Z,98710.16
2023-06-30T03:50:02.551Z,98706.63
2023-06-30T03:52:29.045Z,98708.59
2023-06-30T03:54:56.163Z,98708.59
2023-06-30T03:57:22.710Z,98708.16
2023-06-30T03:59:49.262Z,98706.59
2023-06-30T04:02:16.014Z,98702.63
2023-06-30T04:04:42.592Z,98698.28
2023-06-30T04:07:09.266Z,98696.28
2023-06-30T04:09:35.758Z,98706.94
2023-06-30T04:12:02.234Z,98695.13
2023-06-30T04:14:28.675Z,98695.50
2023-06-30T04:16:56.867Z,98699.06
2023-06-30T04:19:24.331Z,98690.72
2023-06-30T04:21:50.880Z,98697.88
2023-06-30T04:24:17.411Z,98702.56
2023-06-30T04:26:43.915Z,98694.31
2023-06-30T04:29:10.363Z,98690.38
2023-06-30T04:31:37.039Z,98693.53
2023-06-30T04:34:03.583Z,98696.72
2023-06-30T04:36:30.067Z,98693.59
2023-06-30T04:38:56.530Z,98688.88
2023-06-30T04:41:23.047Z,98683.72
2023-06-30T04:43:49.494Z,98688.50
2023-06-30T04:46:15.979Z,98683.38
2023-06-30T04:48:42.494Z,98688.94
2023-06-30T04:51:08.955Z,98695.66
2023-06-30T04:53:35.415Z,98689.75
2023-06-30T04:56:02.401Z,98684.69
2023-06-30T04:58:29.014Z,98679.97
2023-06-30T05:00:55.684Z,98682.81
2023-06-30T05:03:22.358Z,98680.50
2023-06-30T05:05:48.847Z,98677.44
2023-06-30T05:08:15.342Z,98673.97
2023-06-30T05:10:41.801Z,98677.16
2023-06-30T05:13:08.228Z,98671.72
2023-06-30T05:15:34.726Z,98673.31
2023-06-30T05:18:01.254Z,98675.38
2023-06-30T05:20:27.740Z,98668.66
2023-06-30T05:22:54.216Z,98673.00
2023-06-30T05:25:20.653Z,98670.56
2023-06-30T05:27:47.104Z,98670.25
2023-06-30T05:30:13.645Z,98670.69
2023-06-30T05:32:40.115Z,98672.28
2023-06-30T05:35:06.558Z,98673.06
2023-06-30T05:37:33.047Z,98675.88
2023-06-30T05:39:59.491Z,98672.69
2023-06-30T05:42:25.963Z,98662.03
2023-06-30T05:44:52.419Z,98671.09
2023-06-30T05:47:18.862Z,98669.16
2023-06-30T05:49:45.364Z,98670.34
2023-06-30T05:52:11.825Z,98667.94
2023-06-30T05:54:38.285Z,98672.75
2023-06-30T05:57:04.823Z,98670.31
2023-06-30T05:59:31.508Z,98679.00
2023-06-30T06:01:57.934Z,98673.47
2023-06-30T06:04:24.562Z,98676.97
2023-06-30T06:06:51.143Z,98671.78
2023-06-30T06:09:17.648Z,98664.19
2023-06-30T06:11:44.108Z,98664.13
2023-06-30T06:14:10.524Z,98667.66
2023-06-30T06:16:37.023Z,98672.34
2023-06-30T06:19:03.506Z,98675.84
2023-06-30T06:21:29.951Z,98679.31
2023-06-30T06:23:56.468Z,98670.50
2023-06-30T06:26:22.913Z,98671.19
2023-06-30T06:28:49.365Z,98666.28
2023-06-30T06:31:15.957Z,98664.19
2023-06-30T06:33:42.472Z,98668.66
2023-06-30T06:36:08.979Z,98665.75
2023-06-30T06:38:35.513Z,98669.84
2023-06-30T06:41:01.989Z,98673.88
2023-06-30T06:43:28.447Z,98670.81
2023-06-30T06:45:54.922Z,98662.09
2023-06-30T06:48:21.433Z,98653.81
2023-06-30T06:50:47.904Z,98641.63
2023-06-30T06:53:14.351Z,98649.91
2023-06-30T06:55:40.840Z,98671.72
2023-06-30T06:58:07.339Z,98650.28
2023-06-30T07:00:33.818Z,98651.09
2023-06-30T07:03:00.365Z,98649.53
2023-06-30T07:05:26.971Z,98646.25
2023-06-30T07:07:53.464Z,98651.00
2023-06-30T07:10:19.914Z,98649.28
2023-06-30T07:12:46.422Z,98631.38
2023-06-30T07:15:12.989Z,98635.38
2023-06-30T07:17:39.472Z,98642.06
2023-06-30T07:20:06.013Z,98630.78
2023-06-30T07:22:32.498Z,98637.47
2023-06-30T07:24:58.925Z,98631.78
2023-06-30T07:27:25.431Z,98627.28
2023-06-30T07:29:51.925Z,98635.22
2023-06-30T07:32:18.369Z,98622.81
2023-06-30T07:34:44.880Z,98614.84
2023-06-30T07:37:11.400Z,98617.25
2023-06-30T07:39:37.816Z,98626.44
2023-06-30T07:42:04.359Z,98620.44
2023-06-30T07:44:32.115Z,98628.44
2023-06-30T07:46:59.037Z,98613.47
2023-06-30T07:49:26.797Z,98608.59
2023-06-30T07:51:53.244Z,98611.88
2023-06-30T07:54:19.740Z,98609.28
2023-06-30T07:56:46.173Z,98608.31
2023-06-30T07:59:12.644Z,98614.38
2023-06-30T08:01:39.086Z,98609.63
2023-06-30T08:04:05.884Z,98615.13
2023-06-30T08:06:32.528Z,98604.41
2023-06-30T08:08:58.959Z,98599.63
2023-06-30T08:11:25.426Z,98598.81
2023-06-30T08:13:51.943Z,98599.59
2023-06-30T08:16:18.448Z,98609.06
2023-06-30T08:18:52.135Z,98608.06
2023-06-30T08:21:19.088Z,98612.63
2023-06-30T08:23:46.063Z,98604.53
2023-06-30T08:26:12.563Z,98611.47
2023-06-30T08:28:39.034Z,98609.72
2023-06-30T08:31:05.533Z,98606.78
2023-06-30T08:36:01.399Z,98587.97
2023-06-30T08:38:27.880Z,98595.66
2023-06-30T08:40:54.372Z,98594.28
2023-06-30T08:43:20.823Z,98603.16
2023-06-30T08:45:47.450Z,98586.78
2023-06-30T08:48:14.189Z,98576.59
2023-06-30T08:50:40.652Z,98578.63
2023-06-30T08:53:07.141Z,98588.56
2023-06-30T08:55:33.625Z,98595.72
2023-06-30T08:58:02.319Z,98585.00
2023-06-30T09:00:31.064Z,98581.94
2023-06-30T09:02:57.664Z,98575.28
2023-06-30T09:05:24.222Z,98576.50
2023-06-30T09:07:50.793Z,98577.31
2023-06-30T09:10:17.341Z,98578.91
2023-06-30T09:12:43.831Z,98571.41
2023-06-30T09:15:10.283Z,98566.31
2023-06-30T09:17:36.785Z,98570.28
2023-06-30T09:20:03.275Z,98574.66
2023-06-30T09:22:53.947Z,98573.88
2023-06-30T09:25:16.272Z,98578.22
2023-06-30T09:27:42.788Z,98570.69
2023-06-30T09:30:09.236Z,98569.91
2023-06-30T09:32:35.795Z,98569.53
2023-06-30T09:35:02.254Z,98552.47
2023-06-30T09:37:29.128Z,98558.81
2023-06-30T09:39:55.668Z,98569.50
2023-06-30T09:42:22.166Z,98565.53
2023-06-30T09:44:48.729Z,98577.41
2023-06-30T09:47:15.219Z,98566.72
2023-06-30T09:49:41.740Z,98565.53
2023-06-30T09:52:08.287Z,98552.50
2023-06-30T09:54:44.303Z,98549.75
2023-06-30T09:57:11.235Z,98556.50
2023-06-30T09:59:37.703Z,98550.94
2023-06-30T10:02:04.250Z,98554.50
2023-06-30T10:04:30.811Z,98545.75
2023-06-30T10:06:57.333Z,98550.47
2023-06-30T10:09:23.852Z,98547.66
2023-06-30T10:11:50.354Z,98556.31
2023-06-30T10:14:16.779Z,98562.16
2023-06-30T10:16:43.280Z,98558.09
2023-06-30T10:19:09.721Z,98552.88
2023-06-30T10:21:36.249Z,98553.97
2023-06-30T10:24:02.771Z,98558.66
2023-06-30T10:26:29.234Z,98549.44
2023-06-30T10:28:55.687Z,98540.66
2023-06-30T10:31:22.168Z,98539.00
2023-06-30T10:33:48.703Z,98530.63
2023-06-30T10:36:15.178Z,98538.13
2023-06-30T10:38:41.603Z,98532.13
2023-06-30T10:41:08.071Z,98545.97
2023-06-30T10:43:35.779Z,98549.09
2023-06-30T10:46:02.214Z,98542.31
2023-06-30T10:48:28.664Z,98533.97
2023-06-30T10:50:55.107Z,98538.72
2023-06-30T10:53:21.592Z,98550.16
2023-06-30T10:55:48.442Z,98537.69
2023-06-30T10:58:15.087Z,98537.25
2023-06-30T11:00:41.527Z,98527.41
2023-06-30T11:03:08.116Z,98529.22
2023-06-30T11:05:34.660Z,98533.75
2023-06-30T11:08:01.172Z,98526.16
2023-06-30T11:10:27.595Z,98527.97
2023-06-30T11:12:54.042Z,98521.53
2023-06-30T11:15:20.483Z,98518.75
2023-06-30T11:17:46.969Z,98524.25
2023-06-30T11:20:13.569Z,98507.50
2023-06-30T11:22:40.109Z,98509.91
2023-06-30T11:25:06.574Z,98507.72
2023-06-30T11:27:33.085Z,98502.34
2023-06-30T11:29:59.541Z,98511.94
2023-06-30T11:32:26.038Z,98510.28
2023-06-30T11:34:52.500Z,98502.28
2023-06-30T11:37:18.920Z,98501.00
2023-06-30T11:39:45.348Z,98502.09
2023-06-30T11:42:11.820Z,98497.59
2023-06-30T11:44:38.277Z,98496.66
2023-06-30T11:47:04.984Z,98477.13
2023-06-30T11:49:31.740Z,98479.53
2023-06-30T11:51:59.251Z,98492.22
2023-06-30T11:54:26.200Z,98484.69
2023-06-30T11:56:52.932Z,98489.22
2023-06-30T11:59:19.393Z,98487.84
2023-06-30T12:01:45.897Z,98490.13
2023-06-30T12:04:12.589Z,98487.34
2023-06-30T12:06:39.127Z,98483.34
2023-06-30T12:09:05.591Z,98476.94
2023-06-30T12:11:32.056Z,98470.78
2023-06-30T12:13:58.558Z,98465.72
2023-06-30T12:16:25.064Z,98467.19
2023-06-30T12:18:51.581Z,98462.84
2023-06-30T12:21:18.046Z,98458.78
2023-06-30T12:23:44.632Z,98451.00
2023-06-30T12:26:11.238Z,98463.94
2023-06-30T12:28:37.728Z,98451.28
2023-06-30T12:31:04.242Z,98460.50
2023-06-30T12:33:30.702Z,98467.28
2023-06-30T12:35:57.425Z,98456.16
2023-06-30T12:38:23.895Z,98451.22
2023-06-30T12:40:50.348Z,98458.06
2023-06-30T12:43:16.850Z,98454.63
2023-06-30T12:45:43.308Z,98445.44
2023-06-30T12:48:09.792Z,98447.88
2023-06-30T12:50:36.373Z,98445.50
2023-06-30T12:53:02.815Z,98443.16
2023-06-30T12:55:29.310Z,98440.00
2023-06-30T12:57:55.845Z,98444.38
2023-06-30T13:00:22.350Z,98442.09
2023-06-30T13:02:48.949Z,98435.94
2023-06-30T13:05:15.810Z,98434.31
2023-06-30T13:07:42.374Z,98432.59
2023-06-30T13:10:08.939Z,98422.41
2023-06-30T13:12:35.383Z,98418.91
2023-06-30T13:15:01.993Z,98416.06
2023-06-30T13:17:28.456Z,98412.13
2023-06-30T13:19:54.848Z,98412.75
2023-06-30T13:22:21.259Z,98405.66
2023-06-30T13:24:47.653Z,98406.00
2023-06-30T13:27:14.046Z,98402.31
2023-06-30T13:29:40.452Z,98412.34
2023-06-30T13:32:06.841Z,98414.28
2023-06-30T13:34:33.266Z,98407.06
2023-06-30T13:36:59.658Z,98407.31
2023-06-30T13:39:26.075Z,98403.16
2023-06-30T13:41:52.544Z,98401.84
2023-06-30T13:44:18.939Z,98400.44
2023-06-30T13:46:45.323Z,98391.22
2023-06-30T13:49:11.746Z,98391.53
2023-06-30T13:51:38.151Z,98381.53
2023-06-30T13:54:04.546Z,98373.88
2023-06-30T13:56:31.176Z,98381.00
2023-06-30T13:58:57.640Z,98378.19
2023-06-30T14:01:24.177Z,98384.97
2023-06-30T14:03:50.698Z,98375.00
2023-06-30T14:06:17.229Z,98369.00
2023-06-30T14:08:43.653Z,98371.00
2023-06-30T14:11:10.077Z,98372.66
2023-06-30T14:13:36.483Z,98367.06
2023-06-30T14:16:02.916Z,98367.88
2023-06-30T14:18:29.296Z,98370.34
2023-06-30T14:20:55.711Z,98362.06
2023-06-30T14:23:22.100Z,98363.78
2023-06-30T14:25:48.783Z,98356.06
2023-06-30T14:28:15.490Z,98368.59
2023-06-30T14:30:41.878Z,98359.53
2023-06-30T14:33:08.313Z,98354.38
2023-06-30T14:35:34.848Z,98357.25
2023-06-30T14:38:01.210Z,98355.34
2023-06-30T14:40:27.622Z,98351.88
2023-06-30T14:42:54.093Z,98345.22
2023-06-30T14:45:20.494Z,98343.75
2023-06-30T14:47:46.939Z,98343.06
2023-06-30T14:50:13.350Z,98336.41
2023-06-30T14:52:39.735Z,98334.94
2023-06-30T14:55:06.137Z,98337.50
2023-06-30T14:57:32.522Z,98330.88
2023-06-30T14:59:58.900Z,98330.28
2023-06-30T15:02:25.406Z,98330.16
2023-06-30T15:04:51.927Z,98326.72
2023-06-30T15:07:18.362Z,98316.84
2023-06-30T15:09:44.753Z,98323.72
2023-06-30T15:12:11.190Z,98327.97
2023-06-30T15:14:37.556Z,98321.34
2023-06-30T15:17:03.968Z,98315.44
2023-06-30T15:19:30.412Z,98322.78
2023-06-30T15:21:56.771Z,98321.75
2023-06-30T15:24:23.195Z,98313.22
2023-06-30T15:26:49.566Z,98310.00
2023-06-30T15:29:15.925Z,98304.88
2023-06-30T15:31:42.362Z,98303.50
2023-06-30T15:34:08.819Z,98304.44
2023-06-30T15:36:35.224Z,98296.22
2023-06-30T15:39:01.636Z,98295.91
2023-06-30T15:41:28.026Z,98291.72
2023-06-30T15:43:54.430Z,98277.03
2023-06-30T15:46:20.837Z,98294.34
2023-06-30T15:48:47.249Z,98294.19
2023-06-30T15:51:13.651Z,98288.00
2023-06-30T15:53:40.061Z,98288.63
2023-06-30T15:56:06.493Z,98297.50
2023-06-30T15:58:32.924Z,98289.72
2023-06-30T16:00:59.386Z,98282.69
2023-06-30T16:03:25.989Z,98285.97
2023-06-30T16:05:52.580Z,98276.31
2023-06-30T16:08:19.101Z,98279.53
2023-06-30T16:10:45.460Z,98279.41
2023-06-30T16:13:13.379Z,98283.59
2023-06-30T16:15:40.344Z,98278.66
2023-06-30T16:18:06.776Z,98278.47
2023-06-30T16:20:33.298Z,98274.56
2023-06-30T16:22:59.703Z,98274.38
2023-06-30T16:25:26.096Z,98270.16
2023-06-30T16:27:52.521Z,98278.13
2023-06-30T16:30:18.914Z,98276.22
2023-06-30T16:32:45.315Z,98277.63
2023-06-30T16:35:11.740Z,98275.13
2023-06-30T16:37:38.129Z,98268.56
2023-06-30T16:40:04.536Z,98273.22
2023-06-30T16:42:30.934Z,98283.53
2023-06-30T16:44:57.300Z,98282.56
2023-06-30T16:47:23.733Z,98280.09
2023-06-30T16:49:50.124Z,98275.06
2023-06-30T16:52:16.490Z,98273.81
2023-06-30T16:54:42.902Z,98278.97
2023-06-30T16:57:09.270Z,98269.28
2023-06-30T16:59:35.655Z,98275.69
2023-06-30T17:02:02.079Z,98270.56
2023-06-30T17:04:28.506Z,98280.72
2023-06-30T17:06:55.012Z,98268.97
2023-06-30T17:09:21.401Z,98270.09
2023-06-30T17:11:47.776Z,98268.38
2023-06-30T17:14:14.188Z,98270.72
2023-06-30T17:16:40.606Z,98268.69
2023-06-30T17:19:06.993Z,98273.50
2023-06-30T17:21:33.404Z,98269.25
2023-06-30T17:23:59.792Z,98269.53
2023-06-30T17:26:26.158Z,98269.38
2023-06-30T17:28:52.568Z,98271.88
2023-06-30T17:31:19.018Z,98270.91
2023-06-30T17:33:45.423Z,98270.13
2023-06-30T17:36:11.820Z,98276.25
2023-06-30T17:38:38.209Z,98281.38
2023-06-30T17:41:04.627Z,98278.56
2023-06-30T17:43:31.057Z,98273.44
2023-06-30T17:45:57.477Z,98274.69
2023-06-30T17:48:23.918Z,98282.53
2023-06-30T17:50:50.311Z,98280.97
2023-06-30T17:53:16.811Z,98277.38
2023-06-30T17:55:43.250Z,98286.59
2023-06-30T17:58:09.634Z,98282.78
2023-06-30T18:00:36.330Z,98283.09
2023-06-30T18:03:02.821Z,98277.22
2023-06-30T18:05:29.290Z,98272.03
2023-06-30T18:07:55.781Z,98278.75
2023-06-30T18:10:22.245Z,98282.53
2023-06-30T18:12:48.647Z,98275.00
2023-06-30T18:15:15.076Z,98279.72
2023-06-30T18:17:41.543Z,98277.97
2023-06-30T18:20:08.018Z,98285.00
2023-06-30T18:22:34.424Z,98280.84
2023-06-30T18:25:00.821Z,98279.75
2023-06-30T18:27:27.236Z,98275.06
2023-06-30T18:29:53.655Z,98281.78
2023-06-30T18:32:20.167Z,98286.97
2023-06-30T18:34:46.578Z,98287.91
2023-06-30T18:37:12.998Z,98297.88
2023-06-30T18:39:39.420Z,98306.66
2023-06-30T18:42:05.841Z,98302.75
2023-06-30T18:44:32.270Z,98310.09
2023-06-30T18:46:58.880Z,98317.44
2023-06-30T18:49:25.524Z,98321.97
2023-06-30T18:51:51.938Z,98336.16
2023-06-30T18:54:18.346Z,98340.69
2023-06-30T18:56:44.792Z,98350.22
2023-06-30T18:59:11.212Z,98355.69
2023-06-30T19:01:37.906Z,98360.53
2023-06-30T19:04:04.657Z,98370.34
2023-06-30T19:06:31.235Z,98376.91
2023-06-30T19:08:57.661Z,98373.00
2023-06-30T19:11:24.070Z,98378.75
2023-06-30T19:13:50.542Z,98377.81
2023-06-30T19:16:17.011Z,98387.94
2023-06-30T19:18:43.454Z,98397.00
2023-06-30T19:21:09.978Z,98407.91
2023-06-30T19:23:36.405Z,98399.66
2023-06-30T19:26:02.851Z,98410.09
2023-06-30T19:28:29.297Z,98421.94
2023-06-30T19:30:55.682Z,98421.63
2023-06-30T19:33:22.094Z,98431.44
2023-06-30T19:35:48.713Z,98438.75
2023-06-30T19:38:15.257Z,98439.38
2023-06-30T19:40:41.678Z,98438.25
2023-06-30T19:43:08.115Z,98445.25
2023-06-30T19:45:34.535Z,98442.59
2023-06-30T19:48:00.969Z,98441.16
2023-06-30T19:50:27.484Z,98446.16
2023-06-30T19:52:53.894Z,98459.53
2023-06-30T19:55:20.304Z,98453.72
2023-06-30T19:57:46.733Z,98450.31
2023-06-30T20:00:13.144Z,98443.59
2023-06-30T20:02:39.761Z,98447.47
2023-06-30T20:05:06.416Z,98441.66
2023-06-30T20:07:32.822Z,98444.28
2023-06-30T20:09:59.245Z,98438.94
2023-06-30T20:12:25.654Z,98437.19
2023-06-30T20:14:52.082Z,98439.50
2023-06-30T20:17:18.522Z,98438.00
2023-06-30T20:19:44.927Z,98442.63
2023-06-30T20:22:11.361Z,98433.44
2023-06-30T20:24:37.893Z,98435.63
2023-06-30T20:27:04.366Z,98442.09
2023-06-30T20:29:30.865Z,98444.72
2023-06-30T20:31:57.363Z,98444.81
2023-06-30T20:34:23.759Z,98446.63
2023-06-30T20:36:50.196Z,98442.09
2023-06-30T20:39:16.619Z,98447.47
2023-06-30T20:41:43.020Z,98438.09
2023-06-30T20:44:09.436Z,98434.66
2023-06-30T20:46:35.878Z,98430.41
2023-06-30T20:49:02.304Z,98433.78
2023-06-30T20:51:28.805Z,98418.03
2023-06-30T20:53:55.283Z,98420.44
2023-06-30T20:56:21.704Z,98425.06
2023-06-30T20:58:48.124Z,98424.88
2023-06-30T21:01:14.512Z,98417.38
2023-06-30T21:03:41.063Z,98412.38
2023-06-30T21:06:07.503Z,98421.66
2023-06-30T21:08:33.915Z,98416.16
2023-06-30T21:11:00.346Z,98410.38
2023-06-30T21:13:26.739Z,98420.47
2023-06-30T21:15:53.186Z,98413.88
2023-06-30T21:18:19.625Z,98416.75
2023-06-30T21:20:46.460Z,98417.75
2023-06-30T21:23:13.154Z,98418.78
2023-06-30T21:25:39.574Z,98423.72
2023-06-30T21:28:06.729Z,98416.66
2023-06-30T21:30:33.147Z,98415.53
2023-06-30T21:33:00.006Z,98422.50
2023-06-30T21:35:27.330Z,98416.56
2023-06-30T21:37:53.760Z,98414.66
2023-06-30T21:40:20.172Z,98418.34
2023-06-30T21:42:46.568Z,98415.22
2023-06-30T21:45:12.998Z,98419.44
2023-06-30T21:47:39.547Z,98429.97
2023-06-30T21:50:06.019Z,98435.31
2023-06-30T21:52:32.440Z,98446.59
2023-06-30T21:54:58.948Z,98443.09
2023-06-30T21:57:25.362Z,98441.78
2023-06-30T21:59:51.770Z,98446.59
2023-06-30T22:02:18.395Z,98434.28
2023-06-30T22:04:44.896Z,98429.13
2023-06-30T22:07:11.329Z,98428.78
2023-06-30T22:09:37.779Z,98434.03
2023-06-30T22:12:04.211Z,98433.03
2023-06-30T22:14:30.627Z,98431.19
2023-06-30T22:16:57.069Z,98429.22
2023-06-30T22:19:23.506Z,98422.94
2023-06-30T22:21:49.913Z,98423.03
2023-06-30T22:24:16.331Z,98418.78
2023-06-30T22:26:42.754Z,98428.03
2023-06-30T22:29:09.160Z,98423.63
2023-06-30T22:31:35.632Z,98415.00
2023-06-30T22:34:02.087Z,98412.75
2023-06-30T22:36:28.500Z,98410.06
2023-06-30T22:38:54.898Z,98418.06
2023-06-30T22:41:21.325Z,98418.97
2023-06-30T22:43:47.769Z,98418.72
2023-06-30T22:46:14.197Z,98421.94
2023-06-30T22:48:40.616Z,98414.88
2023-06-30T22:51:07.055Z,98426.81
2023-06-30T22:53:33.464Z,98418.56
2023-06-30T22:55:59.892Z,98418.31
2023-06-30T22:58:26.426Z,98416.75
2023-06-30T23:00:52.812Z,98409.66
2023-06-30T23:03:19.308Z,98406.97
2023-06-30T23:05:45.797Z,98405.81
2023-06-30T23:08:12.196Z,98413.88
2023-06-30T23:10:38.638Z,98411.16
2023-06-30T23:13:05.041Z,98415.63
2023-06-30T23:15:31.450Z,98417.78
2023-06-30T23:17:57.956Z,98407.16
2023-06-30T23:20:24.387Z,98411.19
2023-06-30T23:22:50.807Z,98402.13
2023-06-30T23:25:17.232Z,98402.53
2023-06-30T23:27:43.648Z,98404.19
2023-06-30T23:30:10.051Z,98397.94
2023-06-30T23:32:36.484Z,98396.03
2023-06-30T23:35:02.972Z,98392.53
2023-06-30T23:37:29.376Z,98401.34
2023-06-30T23:39:55.819Z,98390.59
2023-06-30T23:42:22.246Z,98391.47
2023-06-30T23:44:48.637Z,98383.19
2023-06-30T23:47:15.087Z,98390.75
2023-06-30T23:49:41.533Z,98383.63
2023-06-30T23:52:07.928Z,98390.50
2023-06-30T23:54:34.368Z,98388.94
2023-06-30T23:57:00.767Z,98388.22
2023-06-30T23:59:27.153Z,98397.91
